sensor_id;sensor_type;location;lat;lon;timestamp;P1;durP1;ratioP1;P2;durP2;ratioP2
57335;SDS011;43171;50.994;18.204;2022-09-28T00:01:56;5.40;;;4.20;;
57335;SDS011;43171;50.994;18.204;2022-09-28T00:04:21;5.30;;;3.90;;
57335;SDS011;43171;50.994;18.204;2022-09-28T00:06:47;5.20;;;3.80;;
57335;SDS011;43171;50.994;18.204;2022-09-28T00:09:13;5.90;;;3.90;;
57335;SDS011;43171;50.994;18.204;2022-09-28T00:11:40;5.00;;;3.80;;
57335;SDS011;43171;50.994;18.204;2022-09-28T00:14:05;5.20;;;3.90;;
57335;SDS011;43171;50.994;18.204;2022-09-28T00:16:33;4.90;;;3.70;;
57335;SDS011;43171;50.994;18.204;2022-09-28T00:19:00;4.30;;;3.80;;
57335;SDS011;43171;50.994;18.204;2022-09-28T00:21:29;6.30;;;3.70;;
57335;SDS011;43171;50.994;18.204;2022-09-28T00:23:56;4.70;;;3.50;;
57335;SDS011;43171;50.994;18.204;2022-09-28T00:26:59;5.60;;;3.70;;
57335;SDS011;43171;50.994;18.204;2022-09-28T00:29:27;4.60;;;3.20;;
57335;SDS011;43171;50.994;18.204;2022-09-28T00:31:58;4.80;;;3.20;;
57335;SDS011;43171;50.994;18.204;2022-09-28T00:34:29;4.90;;;3.20;;
57335;SDS011;43171;50.994;18.204;2022-09-28T00:36:57;4.60;;;3.20;;
57335;SDS011;43171;50.994;18.204;2022-09-28T00:39:24;4.30;;;3.20;;
57335;SDS011;43171;50.994;18.204;2022-09-28T00:41:56;4.10;;;3.20;;
57335;SDS011;43171;50.994;18.204;2022-09-28T00:49:49;3.50;;;3.10;;
57335;SDS011;43171;50.994;18.204;2022-09-28T00:52:21;4.10;;;3.10;;
57335;SDS011;43171;50.994;18.204;2022-09-28T00:54:51;4.00;;;3.30;;
57335;SDS011;43171;50.994;18.204;2022-09-28T00:57:18;4.10;;;3.40;;
57335;SDS011;43171;50.994;18.204;2022-09-28T00:59:46;4.40;;;3.50;;
57335;SDS011;43171;50.994;18.204;2022-09-28T01:02:13;7.00;;;4.10;;
57335;SDS011;43171;50.994;18.204;2022-09-28T01:04:40;7.20;;;6.20;;
57335;SDS011;43171;50.994;18.204;2022-09-28T01:07:07;7.20;;;6.20;;
57335;SDS011;43171;50.994;18.204;2022-09-28T01:09:34;4.90;;;4.30;;
57335;SDS011;43171;50.994;18.204;2022-09-28T01:12:02;6.90;;;4.40;;
57335;SDS011;43171;50.994;18.204;2022-09-28T01:14:28;5.90;;;4.10;;
57335;SDS011;43171;50.994;18.204;2022-09-28T01:31:04;5.10;;;4.00;;
57335;SDS011;43171;50.994;18.204;2022-09-28T01:33:38;5.80;;;3.90;;
57335;SDS011;43171;50.994;18.204;2022-09-28T01:36:09;6.00;;;3.80;;
57335;SDS011;43171;50.994;18.204;2022-09-28T01:38:42;4.70;;;4.00;;
57335;SDS011;43171;50.994;18.204;2022-09-28T01:41:10;5.70;;;3.70;;
57335;SDS011;43171;50.994;18.204;2022-09-28T01:43:37;5.30;;;3.80;;
57335;SDS011;43171;50.994;18.204;2022-09-28T01:46:11;5.80;;;3.90;;
57335;SDS011;43171;50.994;18.204;2022-09-28T01:48:44;5.60;;;4.10;;
57335;SDS011;43171;50.994;18.204;2022-09-28T01:54:18;5.20;;;4.10;;
57335;SDS011;43171;50.994;18.204;2022-09-28T01:59:32;5.50;;;4.30;;
57335;SDS011;43171;50.994;18.204;2022-09-28T02:02:12;5.40;;;4.20;;
57335;SDS011;43171;50.994;18.204;2022-09-28T02:05:00;5.00;;;3.90;;
57335;SDS011;43171;50.994;18.204;2022-09-28T02:07:33;6.20;;;3.80;;
57335;SDS011;43171;50.994;18.204;2022-09-28T02:10:22;4.10;;;3.70;;
57335;SDS011;43171;50.994;18.204;2022-09-28T02:12:51;4.10;;;3.70;;
57335;SDS011;43171;50.994;18.204;2022-09-28T02:15:25;5.20;;;3.50;;
57335;SDS011;43171;50.994;18.204;2022-09-28T02:17:55;5.30;;;3.50;;
57335;SDS011;43171;50.994;18.204;2022-09-28T02:20:20;4.80;;;3.60;;
57335;SDS011;43171;50.994;18.204;2022-09-28T02:22:48;3.70;;;3.20;;
57335;SDS011;43171;50.994;18.204;2022-09-28T02:28:13;3.70;;;3.30;;
57335;SDS011;43171;50.994;18.204;2022-09-28T02:30:40;5.30;;;3.40;;
57335;SDS011;43171;50.994;18.204;2022-09-28T02:33:12;4.40;;;3.10;;
57335;SDS011;43171;50.994;18.204;2022-09-28T02:35:41;5.80;;;3.40;;
57335;SDS011;43171;50.994;18.204;2022-09-28T02:38:09;5.10;;;3.40;;
57335;SDS011;43171;50.994;18.204;2022-09-28T02:40:36;4.40;;;3.20;;
57335;SDS011;43171;50.994;18.204;2022-09-28T02:48:39;4.10;;;3.60;;
57335;SDS011;43171;50.994;18.204;2022-09-28T02:53:49;4.70;;;4.20;;
57335;SDS011;43171;50.994;18.204;2022-09-28T02:56:29;4.70;;;4.30;;
57335;SDS011;43171;50.994;18.204;2022-09-28T02:59:10;5.20;;;4.60;;
57335;SDS011;43171;50.994;18.204;2022-09-28T03:04:52;5.30;;;4.80;;
57335;SDS011;43171;50.994;18.204;2022-09-28T03:07:26;5.70;;;4.70;;
57335;SDS011;43171;50.994;18.204;2022-09-28T03:12:25;5.70;;;5.00;;
57335;SDS011;43171;50.994;18.204;2022-09-28T03:15:27;5.60;;;5.10;;
57335;SDS011;43171;50.994;18.204;2022-09-28T03:17:52;5.60;;;5.00;;
57335;SDS011;43171;50.994;18.204;2022-09-28T03:20:18;6.40;;;5.60;;
57335;SDS011;43171;50.994;18.204;2022-09-28T03:22:44;5.80;;;5.20;;
57335;SDS011;43171;50.994;18.204;2022-09-28T03:25:09;5.50;;;5.00;;
57335;SDS011;43171;50.994;18.204;2022-09-28T03:27:35;6.30;;;5.80;;
57335;SDS011;43171;50.994;18.204;2022-09-28T03:30:02;6.90;;;6.20;;
57335;SDS011;43171;50.994;18.204;2022-09-28T03:32:28;7.40;;;6.60;;
57335;SDS011;43171;50.994;18.204;2022-09-28T03:34:54;8.30;;;6.60;;
57335;SDS011;43171;50.994;18.204;2022-09-28T03:37:20;7.20;;;6.60;;
57335;SDS011;43171;50.994;18.204;2022-09-28T03:39:46;7.10;;;6.40;;
57335;SDS011;43171;50.994;18.204;2022-09-28T03:42:11;6.10;;;5.50;;
57335;SDS011;43171;50.994;18.204;2022-09-28T03:44:37;5.80;;;5.30;;
57335;SDS011;43171;50.994;18.204;2022-09-28T03:47:03;5.20;;;4.60;;
57335;SDS011;43171;50.994;18.204;2022-09-28T03:49:28;5.00;;;4.20;;
57335;SDS011;43171;50.994;18.204;2022-09-28T03:51:54;4.90;;;4.10;;
57335;SDS011;43171;50.994;18.204;2022-09-28T03:54:19;4.40;;;4.00;;
57335;SDS011;43171;50.994;18.204;2022-09-28T03:56:45;4.70;;;3.90;;
57335;SDS011;43171;50.994;18.204;2022-09-28T03:59:11;4.80;;;4.00;;
57335;SDS011;43171;50.994;18.204;2022-09-28T04:01:36;4.50;;;4.00;;
57335;SDS011;43171;50.994;18.204;2022-09-28T04:04:02;4.70;;;4.00;;
57335;SDS011;43171;50.994;18.204;2022-09-28T04:06:28;4.70;;;4.10;;
57335;SDS011;43171;50.994;18.204;2022-09-28T04:08:53;4.60;;;4.20;;
57335;SDS011;43171;50.994;18.204;2022-09-28T04:11:19;5.60;;;4.20;;
57335;SDS011;43171;50.994;18.204;2022-09-28T04:13:48;5.70;;;4.60;;
57335;SDS011;43171;50.994;18.204;2022-09-28T04:16:14;5.00;;;4.50;;
57335;SDS011;43171;50.994;18.204;2022-09-28T04:18:40;5.30;;;4.80;;
57335;SDS011;43171;50.994;18.204;2022-09-28T04:21:08;5.00;;;4.50;;
57335;SDS011;43171;50.994;18.204;2022-09-28T04:23:36;5.00;;;4.50;;
57335;SDS011;43171;50.994;18.204;2022-09-28T04:26:04;5.20;;;4.00;;
57335;SDS011;43171;50.994;18.204;2022-09-28T04:28:31;4.70;;;4.30;;
57335;SDS011;43171;50.994;18.204;2022-09-28T04:31:17;4.60;;;4.00;;
57335;SDS011;43171;50.994;18.204;2022-09-28T04:33:47;4.70;;;4.30;;
57335;SDS011;43171;50.994;18.204;2022-09-28T04:36:13;5.20;;;4.30;;
57335;SDS011;43171;50.994;18.204;2022-09-28T04:38:38;4.30;;;3.70;;
57335;SDS011;43171;50.994;18.204;2022-09-28T04:41:05;5.20;;;4.00;;
57335;SDS011;43171;50.994;18.204;2022-09-28T04:43:32;4.80;;;4.00;;
57335;SDS011;43171;50.994;18.204;2022-09-28T04:45:58;4.90;;;4.00;;
57335;SDS011;43171;50.994;18.204;2022-09-28T04:48:25;5.20;;;4.30;;
57335;SDS011;43171;50.994;18.204;2022-09-28T04:50:52;4.70;;;4.20;;
57335;SDS011;43171;50.994;18.204;2022-09-28T04:53:21;4.30;;;3.90;;
57335;SDS011;43171;50.994;18.204;2022-09-28T04:56:20;4.20;;;3.80;;
57335;SDS011;43171;50.994;18.204;2022-09-28T04:58:40;4.50;;;4.10;;
57335;SDS011;43171;50.994;18.204;2022-09-28T05:01:16;4.40;;;3.90;;
57335;SDS011;43171;50.994;18.204;2022-09-28T05:03:42;4.40;;;4.00;;
57335;SDS011;43171;50.994;18.204;2022-09-28T05:06:08;4.50;;;4.10;;
57335;SDS011;43171;50.994;18.204;2022-09-28T05:08:38;4.20;;;3.80;;
57335;SDS011;43171;50.994;18.204;2022-09-28T05:11:04;5.80;;;4.00;;
57335;SDS011;43171;50.994;18.204;2022-09-28T05:13:31;4.80;;;4.00;;
57335;SDS011;43171;50.994;18.204;2022-09-28T05:16:00;5.40;;;4.10;;
57335;SDS011;43171;50.994;18.204;2022-09-28T05:18:26;4.20;;;3.80;;
57335;SDS011;43171;50.994;18.204;2022-09-28T05:20:51;5.10;;;4.20;;
57335;SDS011;43171;50.994;18.204;2022-09-28T05:23:17;6.00;;;4.00;;
57335;SDS011;43171;50.994;18.204;2022-09-28T05:25:43;4.40;;;3.90;;
57335;SDS011;43171;50.994;18.204;2022-09-28T05:28:11;5.30;;;3.90;;
57335;SDS011;43171;50.994;18.204;2022-09-28T05:30:37;8.50;;;4.30;;
57335;SDS011;43171;50.994;18.204;2022-09-28T05:33:03;4.80;;;4.40;;
57335;SDS011;43171;50.994;18.204;2022-09-28T05:35:29;5.30;;;4.80;;
57335;SDS011;43171;50.994;18.204;2022-09-28T05:37:55;5.50;;;4.30;;
57335;SDS011;43171;50.994;18.204;2022-09-28T05:40:22;6.40;;;5.30;;
57335;SDS011;43171;50.994;18.204;2022-09-28T05:42:47;6.30;;;4.90;;
57335;SDS011;43171;50.994;18.204;2022-09-28T05:45:13;6.30;;;5.30;;
57335;SDS011;43171;50.994;18.204;2022-09-28T05:47:40;6.80;;;5.20;;
57335;SDS011;43171;50.994;18.204;2022-09-28T05:50:07;6.00;;;4.90;;
57335;SDS011;43171;50.994;18.204;2022-09-28T05:52:36;6.30;;;5.60;;
57335;SDS011;43171;50.994;18.204;2022-09-28T05:55:03;5.00;;;4.50;;
57335;SDS011;43171;50.994;18.204;2022-09-28T05:57:32;5.20;;;4.60;;
57335;SDS011;43171;50.994;18.204;2022-09-28T05:59:57;5.10;;;4.60;;
57335;SDS011;43171;50.994;18.204;2022-09-28T06:02:23;4.50;;;4.00;;
57335;SDS011;43171;50.994;18.204;2022-09-28T06:04:49;3.90;;;3.60;;
57335;SDS011;43171;50.994;18.204;2022-09-28T06:07:16;4.40;;;3.80;;
57335;SDS011;43171;50.994;18.204;2022-09-28T06:09:46;4.40;;;3.80;;
57335;SDS011;43171;50.994;18.204;2022-09-28T06:12:11;4.70;;;3.60;;
57335;SDS011;43171;50.994;18.204;2022-09-28T06:14:37;3.90;;;3.50;;
57335;SDS011;43171;50.994;18.204;2022-09-28T06:17:03;4.70;;;3.80;;
57335;SDS011;43171;50.994;18.204;2022-09-28T06:19:29;3.80;;;3.40;;
57335;SDS011;43171;50.994;18.204;2022-09-28T06:21:54;4.80;;;4.20;;
57335;SDS011;43171;50.994;18.204;2022-09-28T06:24:20;5.20;;;4.70;;
57335;SDS011;43171;50.994;18.204;2022-09-28T06:26:46;6.90;;;6.10;;
57335;SDS011;43171;50.994;18.204;2022-09-28T06:29:11;6.00;;;5.10;;
57335;SDS011;43171;50.994;18.204;2022-09-28T06:31:39;6.60;;;4.80;;
57335;SDS011;43171;50.994;18.204;2022-09-28T06:34:04;5.70;;;5.10;;
57335;SDS011;43171;50.994;18.204;2022-09-28T06:36:30;6.70;;;4.50;;
57335;SDS011;43171;50.994;18.204;2022-09-28T06:38:56;5.00;;;4.50;;
57335;SDS011;43171;50.994;18.204;2022-09-28T06:41:21;11.10;;;5.00;;
57335;SDS011;43171;50.994;18.204;2022-09-28T06:43:47;6.80;;;6.20;;
57335;SDS011;43171;50.994;18.204;2022-09-28T06:46:13;5.10;;;4.50;;
57335;SDS011;43171;50.994;18.204;2022-09-28T06:48:39;4.20;;;3.80;;
57335;SDS011;43171;50.994;18.204;2022-09-28T06:51:05;4.30;;;3.70;;
57335;SDS011;43171;50.994;18.204;2022-09-28T06:53:32;4.90;;;4.20;;
57335;SDS011;43171;50.994;18.204;2022-09-28T06:55:58;5.80;;;3.80;;
57335;SDS011;43171;50.994;18.204;2022-09-28T06:58:24;5.70;;;3.80;;
57335;SDS011;43171;50.994;18.204;2022-09-28T07:00:51;5.30;;;3.60;;
57335;SDS011;43171;50.994;18.204;2022-09-28T07:03:18;4.20;;;3.80;;
57335;SDS011;43171;50.994;18.204;2022-09-28T07:05:47;5.50;;;4.40;;
57335;SDS011;43171;50.994;18.204;2022-09-28T07:08:14;8.40;;;5.00;;
57335;SDS011;43171;50.994;18.204;2022-09-28T07:10:49;5.50;;;4.30;;
57335;SDS011;43171;50.994;18.204;2022-09-28T07:13:21;6.00;;;3.90;;
57335;SDS011;43171;50.994;18.204;2022-09-28T07:15:55;4.90;;;4.00;;
57335;SDS011;43171;50.994;18.204;2022-09-28T07:18:21;7.00;;;4.10;;
57335;SDS011;43171;50.994;18.204;2022-09-28T07:20:47;7.50;;;6.60;;
57335;SDS011;43171;50.994;18.204;2022-09-28T07:23:13;4.80;;;3.90;;
57335;SDS011;43171;50.994;18.204;2022-09-28T07:25:39;5.30;;;3.70;;
57335;SDS011;43171;50.994;18.204;2022-09-28T07:28:10;4.30;;;3.70;;
57335;SDS011;43171;50.994;18.204;2022-09-28T07:30:36;6.40;;;3.60;;
57335;SDS011;43171;50.994;18.204;2022-09-28T07:33:03;4.70;;;3.40;;
57335;SDS011;43171;50.994;18.204;2022-09-28T07:35:30;4.50;;;3.30;;
57335;SDS011;43171;50.994;18.204;2022-09-28T07:40:25;5.50;;;3.40;;
57335;SDS011;43171;50.994;18.204;2022-09-28T07:43:10;5.10;;;3.90;;
57335;SDS011;43171;50.994;18.204;2022-09-28T07:45:37;4.10;;;3.10;;
57335;SDS011;43171;50.994;18.204;2022-09-28T07:48:03;4.60;;;3.00;;
57335;SDS011;43171;50.994;18.204;2022-09-28T07:50:29;3.30;;;2.50;;
57335;SDS011;43171;50.994;18.204;2022-09-28T07:52:56;3.50;;;2.40;;
57335;SDS011;43171;50.994;18.204;2022-09-28T07:55:22;5.80;;;3.00;;
57335;SDS011;43171;50.994;18.204;2022-09-28T07:57:55;3.10;;;2.70;;
57335;SDS011;43171;50.994;18.204;2022-09-28T08:00:25;2.40;;;2.20;;
57335;SDS011;43171;50.994;18.204;2022-09-28T08:02:52;3.00;;;2.60;;
57335;SDS011;43171;50.994;18.204;2022-09-28T08:05:17;4.30;;;3.70;;
57335;SDS011;43171;50.994;18.204;2022-09-28T08:07:43;3.00;;;2.10;;
57335;SDS011;43171;50.994;18.204;2022-09-28T08:10:08;2.70;;;2.20;;
57335;SDS011;43171;50.994;18.204;2022-09-28T08:12:34;2.40;;;2.10;;
57335;SDS011;43171;50.994;18.204;2022-09-28T08:15:00;8.60;;;5.00;;
57335;SDS011;43171;50.994;18.204;2022-09-28T08:17:25;2.90;;;2.20;;
57335;SDS011;43171;50.994;18.204;2022-09-28T08:19:51;2.60;;;1.70;;
57335;SDS011;43171;50.994;18.204;2022-09-28T08:22:35;3.00;;;2.10;;
57335;SDS011;43171;50.994;18.204;2022-09-28T08:25:01;2.40;;;2.10;;
57335;SDS011;43171;50.994;18.204;2022-09-28T08:27:27;2.40;;;2.20;;
57335;SDS011;43171;50.994;18.204;2022-09-28T08:29:52;2.40;;;1.60;;
57335;SDS011;43171;50.994;18.204;2022-09-28T08:32:18;2.80;;;1.70;;
57335;SDS011;43171;50.994;18.204;2022-09-28T08:34:44;2.50;;;1.80;;
57335;SDS011;43171;50.994;18.204;2022-09-28T08:37:10;2.80;;;2.00;;
57335;SDS011;43171;50.994;18.204;2022-09-28T08:39:36;3.20;;;2.10;;
57335;SDS011;43171;50.994;18.204;2022-09-28T08:44:50;2.70;;;1.60;;
57335;SDS011;43171;50.994;18.204;2022-09-28T08:47:26;3.50;;;2.30;;
57335;SDS011;43171;50.994;18.204;2022-09-28T08:50:15;2.60;;;1.70;;
57335;SDS011;43171;50.994;18.204;2022-09-28T08:52:43;3.60;;;2.30;;
57335;SDS011;43171;50.994;18.204;2022-09-28T08:55:31;3.30;;;2.00;;
57335;SDS011;43171;50.994;18.204;2022-09-28T09:00:31;3.20;;;2.00;;
57335;SDS011;43171;50.994;18.204;2022-09-28T09:03:09;2.50;;;1.40;;
57335;SDS011;43171;50.994;18.204;2022-09-28T09:05:53;1.90;;;1.60;;
57335;SDS011;43171;50.994;18.204;2022-09-28T09:19:32;1.90;;;1.40;;
57335;SDS011;43171;50.994;18.204;2022-09-28T09:22:38;2.30;;;1.60;;
57335;SDS011;43171;50.994;18.204;2022-09-28T09:30:28;3.00;;;2.10;;
57335;SDS011;43171;50.994;18.204;2022-09-28T09:44:04;4.80;;;2.10;;
57335;SDS011;43171;50.994;18.204;2022-09-28T09:47:02;4.70;;;2.10;;
57335;SDS011;43171;50.994;18.204;2022-09-28T09:49:33;2.90;;;2.00;;
57335;SDS011;43171;50.994;18.204;2022-09-28T09:54:38;3.30;;;2.10;;
57335;SDS011;43171;50.994;18.204;2022-09-28T09:57:29;3.60;;;2.30;;
57335;SDS011;43171;50.994;18.204;2022-09-28T09:59:58;9.80;;;3.20;;
57335;SDS011;43171;50.994;18.204;2022-09-28T10:02:29;3.90;;;2.00;;
57335;SDS011;43171;50.994;18.204;2022-09-28T10:10:33;5.80;;;2.20;;
57335;SDS011;43171;50.994;18.204;2022-09-28T10:13:01;4.50;;;1.80;;
57335;SDS011;43171;50.994;18.204;2022-09-28T10:15:27;6.50;;;2.00;;
57335;SDS011;43171;50.994;18.204;2022-09-28T10:17:55;3.80;;;2.00;;
57335;SDS011;43171;50.994;18.204;2022-09-28T10:20:23;2.90;;;1.60;;
57335;SDS011;43171;50.994;18.204;2022-09-28T10:22:50;2.70;;;1.40;;
57335;SDS011;43171;50.994;18.204;2022-09-28T10:25:15;1.50;;;1.40;;
57335;SDS011;43171;50.994;18.204;2022-09-28T10:27:42;3.30;;;1.50;;
57335;SDS011;43171;50.994;18.204;2022-09-28T10:32:42;1.90;;;1.20;;
57335;SDS011;43171;50.994;18.204;2022-09-28T10:35:23;1.80;;;1.40;;
57335;SDS011;43171;50.994;18.204;2022-09-28T10:38:14;1.60;;;1.30;;
57335;SDS011;43171;50.994;18.204;2022-09-28T10:40:46;2.90;;;1.70;;
57335;SDS011;43171;50.994;18.204;2022-09-28T10:46:04;2.20;;;1.30;;
57335;SDS011;43171;50.994;18.204;2022-09-28T10:48:37;3.60;;;1.60;;
57335;SDS011;43171;50.994;18.204;2022-09-28T10:51:17;2.70;;;1.50;;
57335;SDS011;43171;50.994;18.204;2022-09-28T10:53:59;2.10;;;1.30;;
57335;SDS011;43171;50.994;18.204;2022-09-28T10:56:26;2.40;;;1.40;;
57335;SDS011;43171;50.994;18.204;2022-09-28T10:58:53;1.70;;;1.10;;
57335;SDS011;43171;50.994;18.204;2022-09-28T11:01:21;2.90;;;1.20;;
57335;SDS011;43171;50.994;18.204;2022-09-28T11:03:57;3.30;;;1.20;;
57335;SDS011;43171;50.994;18.204;2022-09-28T11:06:31;3.60;;;2.40;;
57335;SDS011;43171;50.994;18.204;2022-09-28T11:09:01;2.80;;;1.40;;
57335;SDS011;43171;50.994;18.204;2022-09-28T11:11:28;3.70;;;1.40;;
57335;SDS011;43171;50.994;18.204;2022-09-28T11:13:56;1.20;;;1.00;;
57335;SDS011;43171;50.994;18.204;2022-09-28T11:16:32;2.10;;;1.00;;
57335;SDS011;43171;50.994;18.204;2022-09-28T11:21:45;2.40;;;1.00;;
57335;SDS011;43171;50.994;18.204;2022-09-28T11:26:41;1.30;;;0.90;;
57335;SDS011;43171;50.994;18.204;2022-09-28T11:32:06;1.00;;;0.90;;
57335;SDS011;43171;50.994;18.204;2022-09-28T11:34:34;1.80;;;0.80;;
57335;SDS011;43171;50.994;18.204;2022-09-28T11:37:25;2.40;;;1.10;;
57335;SDS011;43171;50.994;18.204;2022-09-28T11:48:16;1.50;;;1.00;;
57335;SDS011;43171;50.994;18.204;2022-09-28T11:50:48;1.90;;;1.20;;
57335;SDS011;43171;50.994;18.204;2022-09-28T11:58:36;1.00;;;0.70;;
57335;SDS011;43171;50.994;18.204;2022-09-28T12:01:25;2.10;;;0.90;;
57335;SDS011;43171;50.994;18.204;2022-09-28T12:03:54;1.90;;;0.80;;
57335;SDS011;43171;50.994;18.204;2022-09-28T12:06:24;1.30;;;0.70;;
57335;SDS011;43171;50.994;18.204;2022-09-28T12:08:58;1.70;;;0.80;;
57335;SDS011;43171;50.994;18.204;2022-09-28T12:11:32;0.80;;;0.60;;
57335;SDS011;43171;50.994;18.204;2022-09-28T12:14:01;1.80;;;0.80;;
57335;SDS011;43171;50.994;18.204;2022-09-28T12:19:05;1.40;;;0.70;;
57335;SDS011;43171;50.994;18.204;2022-09-28T12:21:43;1.50;;;0.70;;
57335;SDS011;43171;50.994;18.204;2022-09-28T12:24:14;2.20;;;0.90;;
57335;SDS011;43171;50.994;18.204;2022-09-28T12:26:46;1.10;;;0.60;;
57335;SDS011;43171;50.994;18.204;2022-09-28T12:29:15;2.00;;;0.90;;
57335;SDS011;43171;50.994;18.204;2022-09-28T12:34:32;4.60;;;1.40;;
57335;SDS011;43171;50.994;18.204;2022-09-28T12:37:10;1.70;;;0.60;;
57335;SDS011;43171;50.994;18.204;2022-09-28T12:47:47;5.70;;;1.30;;
57335;SDS011;43171;50.994;18.204;2022-09-28T12:50:27;7.80;;;1.70;;
57335;SDS011;43171;50.994;18.204;2022-09-28T12:53:15;6.20;;;1.60;;
57335;SDS011;43171;50.994;18.204;2022-09-28T12:56:03;6.40;;;1.50;;
57335;SDS011;43171;50.994;18.204;2022-09-28T12:58:34;1.70;;;0.80;;
57335;SDS011;43171;50.994;18.204;2022-09-28T13:04:02;1.50;;;0.90;;
57335;SDS011;43171;50.994;18.204;2022-09-28T13:17:02;1.90;;;0.90;;
57335;SDS011;43171;50.994;18.204;2022-09-28T13:24:46;2.10;;;1.10;;
57335;SDS011;43171;50.994;18.204;2022-09-28T13:27:14;2.40;;;1.00;;
57335;SDS011;43171;50.994;18.204;2022-09-28T13:29:51;2.60;;;1.20;;
57335;SDS011;43171;50.994;18.204;2022-09-28T13:32:18;3.00;;;1.10;;
57335;SDS011;43171;50.994;18.204;2022-09-28T13:34:45;2.80;;;1.00;;
57335;SDS011;43171;50.994;18.204;2022-09-28T13:39:51;2.00;;;1.00;;
57335;SDS011;43171;50.994;18.204;2022-09-28T13:42:24;2.70;;;1.60;;
57335;SDS011;43171;50.994;18.204;2022-09-28T13:44:56;2.00;;;1.40;;
57335;SDS011;43171;50.994;18.204;2022-09-28T13:56:37;2.90;;;1.10;;
57335;SDS011;43171;50.994;18.204;2022-09-28T13:59:28;2.00;;;1.10;;
57335;SDS011;43171;50.994;18.204;2022-09-28T14:04:51;5.80;;;4.20;;
57335;SDS011;43171;50.994;18.204;2022-09-28T14:10:26;2.80;;;1.70;;
57335;SDS011;43171;50.994;18.204;2022-09-28T14:16:25;5.80;;;2.60;;
57335;SDS011;43171;50.994;18.204;2022-09-28T14:19:08;3.80;;;2.00;;
57335;SDS011;43171;50.994;18.204;2022-09-28T14:21:46;4.70;;;2.10;;
57335;SDS011;43171;50.994;18.204;2022-09-28T14:27:32;2.30;;;1.70;;
57335;SDS011;43171;50.994;18.204;2022-09-28T14:30:24;3.10;;;1.30;;
57335;SDS011;43171;50.994;18.204;2022-09-28T14:32:52;1.40;;;0.90;;
57335;SDS011;43171;50.994;18.204;2022-09-28T14:35:33;2.30;;;0.90;;
57335;SDS011;43171;50.994;18.204;2022-09-28T14:38:05;2.10;;;1.60;;
57335;SDS011;43171;50.994;18.204;2022-09-28T14:40:59;1.50;;;1.00;;
57335;SDS011;43171;50.994;18.204;2022-09-28T14:48:52;4.90;;;2.50;;
57335;SDS011;43171;50.994;18.204;2022-09-28T14:56:27;1.40;;;0.90;;
57335;SDS011;43171;50.994;18.204;2022-09-28T14:58:55;1.20;;;1.00;;
57335;SDS011;43171;50.994;18.204;2022-09-28T15:01:22;1.20;;;1.10;;
57335;SDS011;43171;50.994;18.204;2022-09-28T15:03:57;1.40;;;0.90;;
57335;SDS011;43171;50.994;18.204;2022-09-28T15:06:24;2.00;;;1.10;;
57335;SDS011;43171;50.994;18.204;2022-09-28T15:08:53;2.10;;;1.00;;
57335;SDS011;43171;50.994;18.204;2022-09-28T15:11:22;1.60;;;1.10;;
57335;SDS011;43171;50.994;18.204;2022-09-28T15:13:50;1.70;;;0.90;;
57335;SDS011;43171;50.994;18.204;2022-09-28T15:16:21;1.10;;;0.90;;
57335;SDS011;43171;50.994;18.204;2022-09-28T15:19:03;4.80;;;3.50;;
57335;SDS011;43171;50.994;18.204;2022-09-28T15:21:47;5.10;;;4.60;;
57335;SDS011;43171;50.994;18.204;2022-09-28T15:24:22;3.50;;;2.20;;
57335;SDS011;43171;50.994;18.204;2022-09-28T15:27:15;4.70;;;4.40;;
57335;SDS011;43171;50.994;18.204;2022-09-28T15:32:22;4.10;;;3.50;;
57335;SDS011;43171;50.994;18.204;2022-09-28T15:34:48;3.10;;;2.70;;
57335;SDS011;43171;50.994;18.204;2022-09-28T15:37:22;5.50;;;5.10;;
57335;SDS011;43171;50.994;18.204;2022-09-28T15:39:49;8.40;;;4.60;;
57335;SDS011;43171;50.994;18.204;2022-09-28T15:42:16;5.00;;;3.30;;
57335;SDS011;43171;50.994;18.204;2022-09-28T15:44:42;6.10;;;5.50;;
57335;SDS011;43171;50.994;18.204;2022-09-28T15:47:46;6.70;;;4.10;;
57335;SDS011;43171;50.994;18.204;2022-09-28T15:50:22;3.70;;;3.10;;
57335;SDS011;43171;50.994;18.204;2022-09-28T15:55:41;9.30;;;5.60;;
57335;SDS011;43171;50.994;18.204;2022-09-28T16:00:43;9.30;;;6.50;;
57335;SDS011;43171;50.994;18.204;2022-09-28T16:05:47;11.70;;;8.30;;
57335;SDS011;43171;50.994;18.204;2022-09-28T16:08:18;12.00;;;8.30;;
57335;SDS011;43171;50.994;18.204;2022-09-28T16:10:52;12.70;;;8.90;;
57335;SDS011;43171;50.994;18.204;2022-09-28T16:13:20;11.20;;;8.10;;
57335;SDS011;43171;50.994;18.204;2022-09-28T16:15:52;9.10;;;6.10;;
57335;SDS011;43171;50.994;18.204;2022-09-28T16:18:28;16.00;;;10.10;;
57335;SDS011;43171;50.994;18.204;2022-09-28T16:20:56;10.70;;;7.50;;
57335;SDS011;43171;50.994;18.204;2022-09-28T16:23:30;6.50;;;5.00;;
57335;SDS011;43171;50.994;18.204;2022-09-28T16:26:05;7.70;;;5.10;;
57335;SDS011;43171;50.994;18.204;2022-09-28T16:33:30;6.60;;;4.70;;
57335;SDS011;43171;50.994;18.204;2022-09-28T16:36:03;7.70;;;5.00;;
57335;SDS011;43171;50.994;18.204;2022-09-28T16:38:35;7.10;;;5.20;;
57335;SDS011;43171;50.994;18.204;2022-09-28T16:41:03;8.60;;;6.40;;
57335;SDS011;43171;50.994;18.204;2022-09-28T16:43:29;12.70;;;9.70;;
57335;SDS011;43171;50.994;18.204;2022-09-28T16:46:00;14.10;;;11.20;;
57335;SDS011;43171;50.994;18.204;2022-09-28T16:48:30;17.40;;;12.50;;
57335;SDS011;43171;50.994;18.204;2022-09-28T16:50:58;15.90;;;11.60;;
57335;SDS011;43171;50.994;18.204;2022-09-28T16:53:24;14.80;;;11.20;;
57335;SDS011;43171;50.994;18.204;2022-09-28T16:56:09;46.50;;;29.80;;
57335;SDS011;43171;50.994;18.204;2022-09-28T16:58:35;17.60;;;13.50;;
57335;SDS011;43171;50.994;18.204;2022-09-28T17:01:02;14.90;;;11.00;;
57335;SDS011;43171;50.994;18.204;2022-09-28T17:03:27;20.30;;;16.80;;
57335;SDS011;43171;50.994;18.204;2022-09-28T17:05:53;17.30;;;13.50;;
57335;SDS011;43171;50.994;18.204;2022-09-28T17:08:22;14.70;;;12.20;;
57335;SDS011;43171;50.994;18.204;2022-09-28T17:10:55;19.70;;;14.40;;
57335;SDS011;43171;50.994;18.204;2022-09-28T17:13:24;14.30;;;10.30;;
57335;SDS011;43171;50.994;18.204;2022-09-28T17:15:59;17.40;;;13.00;;
57335;SDS011;43171;50.994;18.204;2022-09-28T17:18:26;13.90;;;10.70;;
57335;SDS011;43171;50.994;18.204;2022-09-28T17:20:56;14.20;;;9.90;;
57335;SDS011;43171;50.994;18.204;2022-09-28T17:23:22;12.40;;;8.60;;
57335;SDS011;43171;50.994;18.204;2022-09-28T17:25:48;11.30;;;7.70;;
57335;SDS011;43171;50.994;18.204;2022-09-28T17:28:33;10.00;;;6.60;;
57335;SDS011;43171;50.994;18.204;2022-09-28T17:31:00;11.00;;;7.00;;
57335;SDS011;43171;50.994;18.204;2022-09-28T17:33:26;11.60;;;6.70;;
57335;SDS011;43171;50.994;18.204;2022-09-28T17:35:56;9.60;;;6.70;;
57335;SDS011;43171;50.994;18.204;2022-09-28T17:38:24;8.20;;;6.70;;
57335;SDS011;43171;50.994;18.204;2022-09-28T17:40:50;7.10;;;5.60;;
57335;SDS011;43171;50.994;18.204;2022-09-28T17:43:15;6.10;;;4.60;;
57335;SDS011;43171;50.994;18.204;2022-09-28T17:45:41;8.00;;;5.40;;
57335;SDS011;43171;50.994;18.204;2022-09-28T17:48:09;4.90;;;3.80;;
57335;SDS011;43171;50.994;18.204;2022-09-28T17:50:39;5.00;;;3.90;;
57335;SDS011;43171;50.994;18.204;2022-09-28T17:53:07;4.20;;;3.20;;
57335;SDS011;43171;50.994;18.204;2022-09-28T17:55:33;5.30;;;3.80;;
57335;SDS011;43171;50.994;18.204;2022-09-28T17:58:06;5.00;;;3.80;;
57335;SDS011;43171;50.994;18.204;2022-09-28T18:00:38;5.00;;;4.20;;
57335;SDS011;43171;50.994;18.204;2022-09-28T18:03:05;7.00;;;5.10;;
57335;SDS011;43171;50.994;18.204;2022-09-28T18:05:36;8.20;;;5.20;;
57335;SDS011;43171;50.994;18.204;2022-09-28T18:08:02;5.40;;;3.90;;